^^
Station Historical Data
Daily Summary for January 12, 2018 Units:  English    Metric   Both
« Previous Day
Next Day »
Daily Weekly Monthly Yearly Custom
  High: Low: Average:
Temperature: TemperatureF °F 71.1 °F 75.1 °F
Dew Point: DewpointF °F 49.1 °F 50.3 °F
Humidity: Humidity% 34% 41%
Wind Speed: WindSpeedMPHmph 0.0mph 5.2mph
Wind Gust: WindSpeedGustMPHmph - -
Wind- - SSE
Pressure: PressureIn in 29.64 in -
Precipitation: 0.00 in    
Historical Graphs
 
 
Tabular Data for January 12, 2018
Time Temperature Dew Point Pressure Wind Wind Speed Wind Gust Humidity Rainfall Rate (Hourly) solar Conditions
TemperatureF °F DewpointF °F PressureIn in Calm     Humidity% HourlyPrecipIn in SoftwareType W/m2 Conditions
09:06 76.3 °F 49.5 °F 29.70 in NNE 4.9 mph 6.0 mph 39% 0.00 in meteobridge W/m2
09:18 76.6 °F 49.8 °F 29.70 in Calm   5.0 mph 39% 0.00 in meteobridge W/m2
09:24 77.4 °F 50.5 °F 29.70 in ENE 6.0 mph 10.0 mph 39% 0.00 in meteobridge W/m2
09:33 77.5 °F 50.5 °F 29.70 in NE 6.0 mph 6.0 mph 39% 0.00 in meteobridge W/m2
09:45 77.2 °F 50.4 °F 29.70 in NE 2.9 mph 13.0 mph 39% 0.00 in meteobridge W/m2
09:57 78.4 °F 50.7 °F 29.70 in NNE 6.0 mph 11.0 mph 38% 0.00 in meteobridge W/m2
10:03 77.7 °F 50.7 °F 29.69 in ENE 10.1 mph 13.0 mph 39% 0.00 in meteobridge W/m2
10:13 77.4 °F 50.5 °F 29.70 in NE 4.9 mph 11.0 mph 39% 0.00 in meteobridge W/m2
10:20 77.7 °F 50.0 °F 29.70 in NNE 8.9 mph 15.0 mph 38% 0.00 in meteobridge W/m2
10:26 78.1 °F 49.6 °F 29.70 in NE 4.9 mph 6.0 mph 37% 0.00 in meteobridge W/m2
10:32 79.3 °F 50.7 °F 29.70 in ESE 4.9 mph 8.0 mph 37% 0.00 in meteobridge W/m2
10:44 80.8 °F 50.5 °F 29.70 in NNE 13.0 mph 16.0 mph 35% 0.00 in meteobridge W/m2
10:50 80.2 °F 50.9 °F 29.70 in ENE 4.0 mph 9.0 mph 36% 0.00 in meteobridge W/m2
10:56 81.0 °F 50.7 °F 29.69 in NE 16.1 mph 18.0 mph 35% 0.00 in meteobridge W/m2
11:02 79.5 °F 50.2 °F 29.69 in NNE 10.1 mph 15.0 mph 36% 0.00 in meteobridge W/m2
11:08 80.1 °F 50.7 °F 29.69 in ENE 0.9 mph 4.0 mph 36% 0.00 in meteobridge W/m2
11:14 81.9 °F 50.7 °F 29.69 in ENE 4.0 mph 9.0 mph 34% 0.00 in meteobridge W/m2
11:20 82.8 °F 52.3 °F 29.68 in NNE 2.0 mph 7.0 mph 35% 0.00 in meteobridge W/m2
11:26 82.6 °F 51.4 °F 29.68 in Calm   7.0 mph 34% 0.00 in meteobridge W/m2
11:32 82.9 °F 51.6 °F 29.68 in North 12.1 mph 12.1 mph 34% 0.00 in meteobridge W/m2
11:38 81.3 °F 51.1 °F 29.68 in North 2.9 mph 16.0 mph 35% 0.00 in meteobridge W/m2
11:51 79.0 °F 51.3 °F 29.68 in ESE 4.0 mph 5.0 mph 38% 0.00 in meteobridge W/m2
11:57 79.9 °F 51.3 °F 29.68 in NE 8.1 mph 12.0 mph 37% 0.00 in meteobridge W/m2
12:03 79.2 °F 51.4 °F 29.68 in NE 4.0 mph 7.0 mph 38% 0.00 in meteobridge W/m2
12:09 78.6 °F 50.2 °F 29.67 in ESE 2.0 mph 10.0 mph 37% 0.00 in meteobridge W/m2
12:15 78.6 °F 50.2 °F 29.68 in SSE 0.9 mph 4.0 mph 37% 0.00 in meteobridge W/m2
12:21 78.6 °F 50.9 °F 29.67 in SSE 2.9 mph 3.0 mph 38% 0.00 in meteobridge W/m2
12:27 78.4 °F 50.7 °F 29.68 in NNE 4.0 mph 5.0 mph 38% 0.00 in meteobridge W/m2
12:33 77.7 °F 52.2 °F 29.68 in South 4.9 mph 11.0 mph 41% 0.00 in meteobridge W/m2
12:39 75.0 °F 51.1 °F 29.67 in SSW 6.9 mph 7.0 mph 43% 0.00 in meteobridge W/m2
12:46 74.5 °F 51.1 °F 29.67 in South 2.0 mph 6.0 mph 44% 0.00 in meteobridge W/m2
12:52 74.5 °F 51.8 °F 29.67 in SE 4.0 mph 6.0 mph 45% 0.00 in meteobridge W/m2
12:58 74.7 °F 52.5 °F 29.67 in SSE 4.0 mph 7.0 mph 46% 0.00 in meteobridge W/m2
13:04 75.0 °F 51.6 °F 29.67 in South 4.9 mph 7.0 mph 44% 0.00 in meteobridge W/m2
13:10 75.2 °F 50.5 °F 29.67 in SSE 4.0 mph 8.0 mph 42% 0.00 in meteobridge W/m2
13:16 75.7 °F 50.4 °F 29.67 in SSE 4.9 mph 6.0 mph 41% 0.00 in meteobridge W/m2
13:22 79.2 °F 50.7 °F 29.66 in South 4.0 mph 9.0 mph 37% 0.00 in meteobridge W/m2
13:28 77.7 °F 50.7 °F 29.66 in South 10.1 mph 17.0 mph 39% 0.00 in meteobridge W/m2
13:34 76.5 °F 50.4 °F 29.66 in SSW 6.0 mph 13.0 mph 40% 0.00 in meteobridge W/m2
13:40 76.8 °F 50.0 °F 29.65 in South 4.9 mph 13.0 mph 39% 0.00 in meteobridge W/m2
13:46 78.3 °F 50.5 °F 29.65 in SSW 12.1 mph 15.0 mph 38% 0.00 in meteobridge W/m2
13:53 76.6 °F 49.8 °F 29.65 in SSW 4.0 mph 12.0 mph 39% 0.00 in meteobridge W/m2
13:59 76.6 °F 49.8 °F 29.65 in SSW 8.1 mph 11.0 mph 39% 0.00 in meteobridge W/m2
14:05 76.5 °F 49.6 °F 29.65 in SSW 2.0 mph 10.0 mph 39% 0.00 in meteobridge W/m2
14:17 77.2 °F 49.6 °F 29.65 in South 4.0 mph 8.0 mph 38% 0.00 in meteobridge W/m2
14:23 76.5 °F 49.6 °F 29.65 in SSW 2.0 mph 11.0 mph 39% 0.00 in meteobridge W/m2
14:29 76.1 °F 49.3 °F 29.66 in WSW 2.9 mph 6.0 mph 39% 0.00 in meteobridge W/m2
14:35 74.7 °F 51.3 °F 29.67 in South 15.0 mph 17.0 mph 44% 0.00 in meteobridge W/m2
14:41 73.2 °F 51.8 °F 29.67 in South 2.9 mph 5.0 mph 47% 0.00 in meteobridge W/m2
14:47 73.0 °F 52.2 °F 29.67 in South 16.1 mph 16.1 mph 48% 0.00 in meteobridge W/m2
14:53 72.1 °F 53.1 °F 29.67 in SSW 4.0 mph 7.0 mph 51% 0.00 in meteobridge W/m2
14:59 71.2 °F 53.2 °F 29.67 in SSW 4.0 mph 11.0 mph 53% 0.00 in meteobridge W/m2
15:08 71.4 °F 51.3 °F 29.66 in SSE 4.0 mph 13.0 mph 49% 0.00 in meteobridge W/m2
15:14 72.5 °F 52.3 °F 29.67 in SW 0.9 mph 3.0 mph 49% 0.00 in meteobridge W/m2
15:30 72.9 °F 52.0 °F 29.65 in SSE 8.9 mph 10.0 mph 48% 0.00 in meteobridge W/m2
15:36 72.0 °F 52.3 °F 29.65 in SSE 11.0 mph 17.0 mph 50% 0.00 in meteobridge W/m2
15:43 72.5 °F 54.0 °F 29.65 in South 14.1 mph 15.0 mph 52% 0.00 in meteobridge W/m2
15:49 71.6 °F 53.1 °F 29.65 in South 11.0 mph 13.0 mph 52% 0.00 in meteobridge W/m2
15:55 71.1 °F 52.0 °F 29.66 in South 8.1 mph 13.0 mph 51% 0.00 in meteobridge W/m2
16:01 71.2 °F 51.6 °F 29.66 in South 4.0 mph 14.0 mph 50% 0.00 in meteobridge W/m2
16:07 73.4 °F 52.5 °F 29.65 in South 2.0 mph 9.0 mph 48% 0.00 in meteobridge W/m2
16:29 75.2 °F 51.1 °F 29.65 in South 6.9 mph 14.0 mph 43% 0.00 in meteobridge W/m2
16:38 75.2 °F 49.8 °F 29.64 in SSE 8.9 mph 12.0 mph 41% 0.00 in meteobridge W/m2
16:44 75.2 °F 50.5 °F 29.65 in SSW 4.0 mph 10.0 mph 42% 0.00 in meteobridge W/m2
16:50 75.0 °F 50.4 °F 29.64 in South 4.9 mph 7.0 mph 42% 0.00 in meteobridge W/m2
16:56 73.9 °F 50.0 °F 29.64 in South 6.0 mph 8.0 mph 43% 0.00 in meteobridge W/m2
17:02 73.8 °F 49.8 °F 29.64 in South 2.9 mph 5.0 mph 43% 0.00 in meteobridge W/m2
17:08 74.1 °F 49.6 °F 29.64 in SSW 4.0 mph 5.0 mph 42% 0.00 in meteobridge W/m2
17:18 74.5 °F 49.8 °F 29.65 in SSE 6.9 mph 12.0 mph 42% 0.00 in meteobridge W/m2
17:25 74.3 °F 49.1 °F 29.65 in Calm   9.0 mph 41% 0.00 in meteobridge W/m2
17:31 73.9 °F 50.0 °F 29.65 in South 0.9 mph 6.0 mph 43% 0.00 in meteobridge W/m2
17:37 73.6 °F 50.4 °F 29.65 in South 4.0 mph 10.0 mph 44% 0.00 in meteobridge W/m2
17:43 72.9 °F 49.6 °F 29.66 in SSE 2.0 mph 7.0 mph 44% 0.00 in meteobridge W/m2
17:49 72.7 °F 50.7 °F 29.66 in South 8.9 mph 10.0 mph 46% 0.00 in meteobridge W/m2
17:59 72.0 °F 50.0 °F 29.65 in SSE 2.0 mph 7.0 mph 46% 0.00 in meteobridge W/m2
18:05 72.3 °F 49.8 °F 29.65 in South 2.9 mph 5.0 mph 45% 0.00 in meteobridge W/m2
18:11 73.0 °F 49.8 °F 29.65 in South 2.0 mph 5.0 mph 44% 0.00 in meteobridge W/m2
18:17 74.1 °F 50.2 °F 29.65 in WSW 2.9 mph 9.0 mph 43% 0.00 in meteobridge W/m2
18:24 74.7 °F 50.0 °F 29.67 in SW 4.0 mph 8.0 mph 42% 0.00 in meteobridge W/m2
18:30 74.7 °F 50.0 °F 29.68 in SSE 6.9 mph 7.0 mph 42% 0.00 in meteobridge W/m2
18:36 74.8 °F 50.9 °F 29.69 in SE 0.9 mph 6.0 mph 43% 0.00 in meteobridge W/m2
18:42 75.7 °F 50.4 °F 29.69 in SSE 2.0 mph 7.0 mph 41% 0.00 in meteobridge W/m2
18:48 76.5 °F 51.6 °F 29.68 in South 4.9 mph 8.0 mph 42% 0.00 in meteobridge W/m2
18:54 75.7 °F 51.6 °F 29.65 in South 2.9 mph 9.0 mph 43% 0.00 in meteobridge W/m2
19:00 75.4 °F 52.0 °F 29.67 in SSE 6.0 mph 13.0 mph 44% 0.00 in meteobridge W/m2
19:06 74.7 °F 52.0 °F 29.68 in South 6.9 mph 10.0 mph 45% 0.00 in meteobridge W/m2
19:12 74.7 °F 52.5 °F 29.69 in South 8.9 mph 11.0 mph 46% 0.00 in meteobridge W/m2
19:25 73.8 °F 51.1 °F 29.70 in SSW 4.0 mph 4.0 mph 45% 0.00 in meteobridge W/m2
19:31 73.8 °F 51.1 °F 29.70 in SSW 4.0 mph -999.0 mph 45% 0.00 in meteobridge W/m2
19:37 73.8 °F 51.1 °F 29.70 in SSW 4.0 mph -999.0 mph 45% 0.00 in meteobridge W/m2
Regenstein, Windhoek, Namibia
Compliments of Weather Underground - 2.5 mb